sensor_id;sensor_type;location;lat;lon;timestamp;P1;durP1;ratioP1;P2;durP2;ratioP2
67433;SDS011;54305;47.950;6.572;2024-03-23T00:54:02;10.25;;;3.83;;
67433;SDS011;54305;47.950;6.572;2024-03-23T00:56:28;8.02;;;3.63;;
67433;SDS011;54305;47.950;6.572;2024-03-23T00:58:53;6.05;;;4.00;;
67433;SDS011;54305;47.950;6.572;2024-03-23T01:01:19;6.70;;;3.40;;
67433;SDS011;54305;47.950;6.572;2024-03-23T01:03:44;6.45;;;3.53;;
67433;SDS011;54305;47.950;6.572;2024-03-23T01:06:09;7.18;;;3.28;;
67433;SDS011;54305;47.950;6.572;2024-03-23T01:08:34;6.70;;;3.33;;
67433;SDS011;54305;47.950;6.572;2024-03-23T01:11:00;8.35;;;2.90;;
67433;SDS011;54305;47.950;6.572;2024-03-23T01:13:27;4.47;;;2.92;;
67433;SDS011;54305;47.950;6.572;2024-03-23T01:15:53;5.88;;;3.10;;
67433;SDS011;54305;47.950;6.572;2024-03-23T01:18:20;8.70;;;3.80;;
67433;SDS011;54305;47.950;6.572;2024-03-23T01:20:45;8.90;;;3.97;;
67433;SDS011;54305;47.950;6.572;2024-03-23T01:23:11;8.65;;;3.78;;
67433;SDS011;54305;47.950;6.572;2024-03-23T01:25:36;9.10;;;3.22;;
67433;SDS011;54305;47.950;6.572;2024-03-23T01:28:02;6.35;;;3.58;;
67433;SDS011;54305;47.950;6.572;2024-03-23T01:30:27;7.22;;;3.15;;
67433;SDS011;54305;47.950;6.572;2024-03-23T01:32:53;10.27;;;4.15;;
67433;SDS011;54305;47.950;6.572;2024-03-23T01:35:18;11.77;;;4.82;;
67433;SDS011;54305;47.950;6.572;2024-03-23T01:37:44;11.85;;;4.60;;
67433;SDS011;54305;47.950;6.572;2024-03-23T01:40:09;9.85;;;4.30;;
67433;SDS011;54305;47.950;6.572;2024-03-23T01:42:35;10.07;;;4.65;;
67433;SDS011;54305;47.950;6.572;2024-03-23T01:45:01;11.23;;;4.90;;
67433;SDS011;54305;47.950;6.572;2024-03-23T01:47:26;10.88;;;5.32;;
67433;SDS011;54305;47.950;6.572;2024-03-23T01:49:51;12.95;;;6.28;;
67433;SDS011;54305;47.950;6.572;2024-03-23T01:52:17;12.68;;;5.65;;
67433;SDS011;54305;47.950;6.572;2024-03-23T01:54:43;15.30;;;6.28;;
67433;SDS011;54305;47.950;6.572;2024-03-23T01:57:09;10.27;;;5.82;;
67433;SDS011;54305;47.950;6.572;2024-03-23T01:59:35;11.23;;;5.30;;
67433;SDS011;54305;47.950;6.572;2024-03-23T02:02:00;15.05;;;6.00;;
67433;SDS011;54305;47.950;6.572;2024-03-23T02:04:26;11.63;;;5.65;;
67433;SDS011;54305;47.950;6.572;2024-03-23T02:06:51;11.57;;;5.00;;
67433;SDS011;54305;47.950;6.572;2024-03-23T02:09:17;14.95;;;5.38;;
67433;SDS011;54305;47.950;6.572;2024-03-23T02:11:42;10.65;;;5.38;;
67433;SDS011;54305;47.950;6.572;2024-03-23T02:14:07;11.73;;;5.43;;
67433;SDS011;54305;47.950;6.572;2024-03-23T02:16:33;13.55;;;6.00;;
67433;SDS011;54305;47.950;6.572;2024-03-23T02:18:58;10.15;;;5.72;;
67433;SDS011;54305;47.950;6.572;2024-03-23T02:21:23;15.07;;;5.35;;
67433;SDS011;54305;47.950;6.572;2024-03-23T02:23:49;14.63;;;5.28;;
67433;SDS011;54305;47.950;6.572;2024-03-23T02:26:14;12.93;;;5.32;;
67433;SDS011;54305;47.950;6.572;2024-03-23T02:28:40;14.57;;;5.70;;
67433;SDS011;54305;47.950;6.572;2024-03-23T02:31:05;12.48;;;6.03;;
67433;SDS011;54305;47.950;6.572;2024-03-23T02:33:31;12.80;;;6.07;;
67433;SDS011;54305;47.950;6.572;2024-03-23T02:35:57;11.00;;;5.75;;
67433;SDS011;54305;47.950;6.572;2024-03-23T02:38:22;10.77;;;5.50;;
67433;SDS011;54305;47.950;6.572;2024-03-23T02:40:48;12.30;;;6.35;;
67433;SDS011;54305;47.950;6.572;2024-03-23T02:43:13;11.63;;;5.72;;
67433;SDS011;54305;47.950;6.572;2024-03-23T02:45:38;12.52;;;5.72;;
67433;SDS011;54305;47.950;6.572;2024-03-23T02:48:04;13.23;;;5.70;;
67433;SDS011;54305;47.950;6.572;2024-03-23T02:50:29;19.85;;;6.85;;
67433;SDS011;54305;47.950;6.572;2024-03-23T02:52:55;14.77;;;7.00;;
67433;SDS011;54305;47.950;6.572;2024-03-23T02:55:20;16.90;;;6.18;;
67433;SDS011;54305;47.950;6.572;2024-03-23T02:57:46;19.45;;;6.82;;
67433;SDS011;54305;47.950;6.572;2024-03-23T03:00:11;13.02;;;5.38;;
67433;SDS011;54305;47.950;6.572;2024-03-23T03:02:37;12.65;;;5.65;;
67433;SDS011;54305;47.950;6.572;2024-03-23T03:05:03;16.90;;;7.10;;
67433;SDS011;54305;47.950;6.572;2024-03-23T03:07:30;15.40;;;7.22;;
67433;SDS011;54305;47.950;6.572;2024-03-23T03:09:56;13.90;;;7.20;;
67433;SDS011;54305;47.950;6.572;2024-03-23T03:12:21;15.05;;;6.63;;
67433;SDS011;54305;47.950;6.572;2024-03-23T03:14:46;15.82;;;6.32;;
67433;SDS011;54305;47.950;6.572;2024-03-23T03:17:12;17.73;;;6.57;;
67433;SDS011;54305;47.950;6.572;2024-03-23T03:19:38;15.90;;;7.68;;
67433;SDS011;54305;47.950;6.572;2024-03-23T03:22:03;13.40;;;7.20;;
67433;SDS011;54305;47.950;6.572;2024-03-23T03:24:29;15.60;;;7.40;;
67433;SDS011;54305;47.950;6.572;2024-03-23T03:26:54;23.63;;;8.05;;
67433;SDS011;54305;47.950;6.572;2024-03-23T03:29:20;17.73;;;7.65;;
67433;SDS011;54305;47.950;6.572;2024-03-23T03:31:45;17.23;;;6.63;;
67433;SDS011;54305;47.950;6.572;2024-03-23T03:34:11;20.95;;;8.63;;
67433;SDS011;54305;47.950;6.572;2024-03-23T03:36:36;15.48;;;8.10;;
67433;SDS011;54305;47.950;6.572;2024-03-23T03:39:02;17.45;;;7.63;;
67433;SDS011;54305;47.950;6.572;2024-03-23T03:41:31;15.23;;;7.50;;
67433;SDS011;54305;47.950;6.572;2024-03-23T03:43:57;24.13;;;7.90;;
67433;SDS011;54305;47.950;6.572;2024-03-23T03:46:26;16.45;;;7.40;;
67433;SDS011;54305;47.950;6.572;2024-03-23T03:48:51;17.63;;;8.70;;
67433;SDS011;54305;47.950;6.572;2024-03-23T03:51:17;20.33;;;8.38;;
67433;SDS011;54305;47.950;6.572;2024-03-23T03:53:42;17.42;;;8.45;;
67433;SDS011;54305;47.950;6.572;2024-03-23T03:56:07;20.33;;;9.35;;
67433;SDS011;54305;47.950;6.572;2024-03-23T03:58:33;24.27;;;9.57;;
67433;SDS011;54305;47.950;6.572;2024-03-23T04:00:58;22.50;;;9.15;;
67433;SDS011;54305;47.950;6.572;2024-03-23T04:03:23;19.02;;;9.05;;
67433;SDS011;54305;47.950;6.572;2024-03-23T04:05:52;22.58;;;9.60;;
67433;SDS011;54305;47.950;6.572;2024-03-23T04:08:18;18.20;;;9.88;;
67433;SDS011;54305;47.950;6.572;2024-03-23T04:10:44;20.95;;;9.68;;
67433;SDS011;54305;47.950;6.572;2024-03-23T04:13:09;19.92;;;8.57;;
67433;SDS011;54305;47.950;6.572;2024-03-23T04:15:35;31.55;;;10.15;;
67433;SDS011;54305;47.950;6.572;2024-03-23T04:18:00;20.20;;;8.15;;
67433;SDS011;54305;47.950;6.572;2024-03-23T04:20:25;19.08;;;8.93;;
67433;SDS011;54305;47.950;6.572;2024-03-23T04:22:50;26.20;;;11.13;;
67433;SDS011;54305;47.950;6.572;2024-03-23T04:25:16;30.60;;;10.10;;
67433;SDS011;54305;47.950;6.572;2024-03-23T04:27:41;25.52;;;11.65;;
67433;SDS011;54305;47.950;6.572;2024-03-23T04:30:07;35.35;;;11.20;;
67433;SDS011;54305;47.950;6.572;2024-03-23T04:32:36;27.38;;;11.32;;
67433;SDS011;54305;47.950;6.572;2024-03-23T04:35:02;29.45;;;10.73;;
67433;SDS011;54305;47.950;6.572;2024-03-23T04:37:31;28.30;;;10.55;;
67433;SDS011;54305;47.950;6.572;2024-03-23T04:39:58;26.52;;;11.20;;
67433;SDS011;54305;47.950;6.572;2024-03-23T04:42:24;27.42;;;10.35;;
67433;SDS011;54305;47.950;6.572;2024-03-23T04:44:49;26.92;;;9.15;;
67433;SDS011;54305;47.950;6.572;2024-03-23T04:47:15;24.75;;;10.05;;
67433;SDS011;54305;47.950;6.572;2024-03-23T04:49:41;27.45;;;11.18;;
67433;SDS011;54305;47.950;6.572;2024-03-23T04:52:07;14.57;;;5.45;;
67433;SDS011;54305;47.950;6.572;2024-03-23T04:54:32;9.32;;;3.38;;
67433;SDS011;54305;47.950;6.572;2024-03-23T04:56:58;6.30;;;3.00;;
67433;SDS011;54305;47.950;6.572;2024-03-23T04:59:23;5.43;;;2.40;;
67433;SDS011;54305;47.950;6.572;2024-03-23T05:01:49;4.43;;;2.20;;
67433;SDS011;54305;47.950;6.572;2024-03-23T05:04:14;4.45;;;2.17;;
67433;SDS011;54305;47.950;6.572;2024-03-23T05:06:39;6.45;;;1.95;;
67433;SDS011;54305;47.950;6.572;2024-03-23T05:09:05;9.95;;;2.03;;
67433;SDS011;54305;47.950;6.572;2024-03-23T05:11:36;3.17;;;1.85;;
67433;SDS011;54305;47.950;6.572;2024-03-23T05:14:05;3.58;;;1.27;;
67433;SDS011;54305;47.950;6.572;2024-03-23T05:16:30;2.53;;;1.52;;
67433;SDS011;54305;47.950;6.572;2024-03-23T05:18:55;3.22;;;1.10;;
67433;SDS011;54305;47.950;6.572;2024-03-23T05:21:21;2.22;;;1.10;;
67433;SDS011;54305;47.950;6.572;2024-03-23T05:23:46;1.55;;;1.08;;
67433;SDS011;54305;47.950;6.572;2024-03-23T05:26:12;1.25;;;0.60;;
67433;SDS011;54305;47.950;6.572;2024-03-23T05:28:37;2.13;;;0.90;;
67433;SDS011;54305;47.950;6.572;2024-03-23T05:31:03;1.60;;;0.85;;
67433;SDS011;54305;47.950;6.572;2024-03-23T05:33:28;2.33;;;1.02;;
67433;SDS011;54305;47.950;6.572;2024-03-23T05:35:57;4.90;;;0.70;;
67433;SDS011;54305;47.950;6.572;2024-03-23T05:38:23;1.48;;;0.70;;
67433;SDS011;54305;47.950;6.572;2024-03-23T05:40:55;1.65;;;0.60;;
67433;SDS011;54305;47.950;6.572;2024-03-23T05:43:25;3.22;;;0.50;;
67433;SDS011;54305;47.950;6.572;2024-03-23T05:45:54;1.92;;;0.57;;
67433;SDS011;54305;47.950;6.572;2024-03-23T05:48:19;1.58;;;0.70;;
67433;SDS011;54305;47.950;6.572;2024-03-23T05:50:45;4.05;;;1.80;;
67433;SDS011;54305;47.950;6.572;2024-03-23T05:53:10;0.95;;;0.40;;
67433;SDS011;54305;47.950;6.572;2024-03-23T05:55:35;1.35;;;0.55;;
67433;SDS011;54305;47.950;6.572;2024-03-23T05:58:01;2.08;;;0.93;;
67433;SDS011;54305;47.950;6.572;2024-03-23T06:00:26;2.35;;;0.98;;
67433;SDS011;54305;47.950;6.572;2024-03-23T06:02:51;4.07;;;1.67;;
67433;SDS011;54305;47.950;6.572;2024-03-23T06:05:17;4.20;;;1.27;;
67433;SDS011;54305;47.950;6.572;2024-03-23T06:07:42;4.55;;;2.20;;
67433;SDS011;54305;47.950;6.572;2024-03-23T06:10:07;8.13;;;1.60;;
67433;SDS011;54305;47.950;6.572;2024-03-23T06:12:33;7.47;;;1.63;;
67433;SDS011;54305;47.950;6.572;2024-03-23T06:14:58;3.08;;;1.45;;
67433;SDS011;54305;47.950;6.572;2024-03-23T06:17:24;3.80;;;1.70;;
67433;SDS011;54305;47.950;6.572;2024-03-23T06:19:49;5.70;;;2.05;;
67433;SDS011;54305;47.950;6.572;2024-03-23T06:22:14;3.58;;;2.03;;
67433;SDS011;54305;47.950;6.572;2024-03-23T06:24:40;6.38;;;2.00;;
67433;SDS011;54305;47.950;6.572;2024-03-23T06:27:06;5.20;;;1.83;;
67433;SDS011;54305;47.950;6.572;2024-03-23T06:29:31;5.65;;;2.33;;
67433;SDS011;54305;47.950;6.572;2024-03-23T06:31:57;9.45;;;3.22;;
67433;SDS011;54305;47.950;6.572;2024-03-23T06:34:22;9.32;;;3.00;;
67433;SDS011;54305;47.950;6.572;2024-03-23T06:36:48;4.78;;;1.95;;
67433;SDS011;54305;47.950;6.572;2024-03-23T06:39:14;9.05;;;3.10;;
67433;SDS011;54305;47.950;6.572;2024-03-23T06:41:50;8.60;;;2.90;;
67433;SDS011;54305;47.950;6.572;2024-03-23T06:44:18;8.48;;;2.20;;
67433;SDS011;54305;47.950;6.572;2024-03-23T06:46:44;9.70;;;2.53;;
67433;SDS011;54305;47.950;6.572;2024-03-23T06:49:09;9.30;;;2.13;;
67433;SDS011;54305;47.950;6.572;2024-03-23T06:51:35;10.40;;;2.60;;
67433;SDS011;54305;47.950;6.572;2024-03-23T06:54:00;9.30;;;2.33;;
67433;SDS011;54305;47.950;6.572;2024-03-23T06:56:25;8.10;;;2.47;;
67433;SDS011;54305;47.950;6.572;2024-03-23T06:58:51;8.52;;;1.98;;
67433;SDS011;54305;47.950;6.572;2024-03-23T07:01:16;9.48;;;2.13;;
67433;SDS011;54305;47.950;6.572;2024-03-23T07:03:41;5.90;;;1.77;;
67433;SDS011;54305;47.950;6.572;2024-03-23T07:06:09;6.43;;;2.38;;
67433;SDS011;54305;47.950;6.572;2024-03-23T07:08:35;13.85;;;2.92;;
67433;SDS011;54305;47.950;6.572;2024-03-23T07:11:00;12.70;;;3.10;;
67433;SDS011;54305;47.950;6.572;2024-03-23T07:13:25;11.18;;;2.80;;
67433;SDS011;54305;47.950;6.572;2024-03-23T07:15:51;9.50;;;3.17;;
67433;SDS011;54305;47.950;6.572;2024-03-23T07:18:17;7.32;;;3.05;;
67433;SDS011;54305;47.950;6.572;2024-03-23T07:20:45;11.20;;;2.47;;
67433;SDS011;54305;47.950;6.572;2024-03-23T07:23:17;7.95;;;2.60;;
67433;SDS011;54305;47.950;6.572;2024-03-23T07:25:42;8.27;;;2.80;;
67433;SDS011;54305;47.950;6.572;2024-03-23T07:28:07;9.18;;;3.20;;
67433;SDS011;54305;47.950;6.572;2024-03-23T07:30:33;10.45;;;2.75;;
67433;SDS011;54305;47.950;6.572;2024-03-23T07:32:58;13.25;;;3.03;;
67433;SDS011;54305;47.950;6.572;2024-03-23T07:35:23;13.38;;;3.22;;
67433;SDS011;54305;47.950;6.572;2024-03-23T07:37:48;17.00;;;3.35;;
67433;SDS011;54305;47.950;6.572;2024-03-23T07:40:14;13.00;;;3.40;;
67433;SDS011;54305;47.950;6.572;2024-03-23T07:42:39;16.05;;;4.05;;
67433;SDS011;54305;47.950;6.572;2024-03-23T07:45:05;9.60;;;3.20;;
67433;SDS011;54305;47.950;6.572;2024-03-23T07:47:30;16.60;;;4.07;;
67433;SDS011;54305;47.950;6.572;2024-03-23T07:49:56;16.27;;;3.55;;
67433;SDS011;54305;47.950;6.572;2024-03-23T07:52:21;15.77;;;4.38;;
67433;SDS011;54305;47.950;6.572;2024-03-23T07:54:46;11.48;;;3.88;;
67433;SDS011;54305;47.950;6.572;2024-03-23T07:57:12;15.63;;;3.70;;
67433;SDS011;54305;47.950;6.572;2024-03-23T07:59:37;10.65;;;3.33;;
67433;SDS011;54305;47.950;6.572;2024-03-23T08:02:02;16.88;;;3.83;;
67433;SDS011;54305;47.950;6.572;2024-03-23T08:04:28;18.55;;;4.00;;
67433;SDS011;54305;47.950;6.572;2024-03-23T08:06:54;17.55;;;3.78;;
67433;SDS011;54305;47.950;6.572;2024-03-23T08:09:19;12.38;;;3.35;;
67433;SDS011;54305;47.950;6.572;2024-03-23T08:11:44;13.35;;;3.08;;
67433;SDS011;54305;47.950;6.572;2024-03-23T08:14:11;10.57;;;2.83;;
67433;SDS011;54305;47.950;6.572;2024-03-23T08:16:37;11.82;;;3.45;;
67433;SDS011;54305;47.950;6.572;2024-03-23T08:19:02;12.23;;;3.88;;
67433;SDS011;54305;47.950;6.572;2024-03-23T08:21:28;15.48;;;4.03;;
67433;SDS011;54305;47.950;6.572;2024-03-23T08:23:54;12.00;;;4.20;;
67433;SDS011;54305;47.950;6.572;2024-03-23T08:26:19;11.90;;;3.42;;
67433;SDS011;54305;47.950;6.572;2024-03-23T08:28:45;17.85;;;3.75;;
67433;SDS011;54305;47.950;6.572;2024-03-23T08:31:11;10.65;;;2.50;;
67433;SDS011;54305;47.950;6.572;2024-03-23T08:33:37;12.63;;;3.35;;
67433;SDS011;54305;47.950;6.572;2024-03-23T08:36:07;16.13;;;4.00;;
67433;SDS011;54305;47.950;6.572;2024-03-23T08:38:34;14.30;;;3.63;;
67433;SDS011;54305;47.950;6.572;2024-03-23T08:41:00;9.80;;;3.17;;
67433;SDS011;54305;47.950;6.572;2024-03-23T08:43:28;9.85;;;3.20;;
67433;SDS011;54305;47.950;6.572;2024-03-23T08:46:02;8.63;;;2.72;;
67433;SDS011;54305;47.950;6.572;2024-03-23T08:48:28;14.98;;;3.90;;
67433;SDS011;54305;47.950;6.572;2024-03-23T08:51:03;15.57;;;3.25;;
67433;SDS011;54305;47.950;6.572;2024-03-23T08:53:33;12.95;;;3.38;;
67433;SDS011;54305;47.950;6.572;2024-03-23T08:55:59;12.60;;;3.13;;
67433;SDS011;54305;47.950;6.572;2024-03-23T08:58:26;13.60;;;3.50;;
67433;SDS011;54305;47.950;6.572;2024-03-23T09:00:52;7.30;;;2.53;;
67433;SDS011;54305;47.950;6.572;2024-03-23T09:03:21;5.13;;;1.38;;
67433;SDS011;54305;47.950;6.572;2024-03-23T09:05:46;2.28;;;1.00;;
67433;SDS011;54305;47.950;6.572;2024-03-23T09:08:12;3.85;;;1.27;;
67433;SDS011;54305;47.950;6.572;2024-03-23T09:10:40;2.35;;;0.90;;
67433;SDS011;54305;47.950;6.572;2024-03-23T09:13:07;4.03;;;1.08;;
67433;SDS011;54305;47.950;6.572;2024-03-23T09:15:34;4.30;;;2.15;;
67433;SDS011;54305;47.950;6.572;2024-03-23T09:17:59;3.45;;;1.38;;
67433;SDS011;54305;47.950;6.572;2024-03-23T09:20:25;7.38;;;1.98;;
67433;SDS011;54305;47.950;6.572;2024-03-23T09:22:51;5.57;;;1.80;;
67433;SDS011;54305;47.950;6.572;2024-03-23T09:25:16;5.38;;;2.30;;
67433;SDS011;54305;47.950;6.572;2024-03-23T09:27:41;9.73;;;2.15;;
67433;SDS011;54305;47.950;6.572;2024-03-23T09:30:07;4.93;;;2.33;;
67433;SDS011;54305;47.950;6.572;2024-03-23T09:32:32;10.68;;;2.90;;
67433;SDS011;54305;47.950;6.572;2024-03-23T09:34:58;8.65;;;2.28;;
67433;SDS011;54305;47.950;6.572;2024-03-23T09:37:23;7.70;;;2.20;;
67433;SDS011;54305;47.950;6.572;2024-03-23T09:39:49;8.07;;;2.35;;
67433;SDS011;54305;47.950;6.572;2024-03-23T09:42:14;11.10;;;2.65;;
67433;SDS011;54305;47.950;6.572;2024-03-23T09:44:39;12.00;;;3.50;;
67433;SDS011;54305;47.950;6.572;2024-03-23T09:47:06;12.70;;;3.08;;
67433;SDS011;54305;47.950;6.572;2024-03-23T09:49:33;10.07;;;3.25;;
67433;SDS011;54305;47.950;6.572;2024-03-23T09:52:01;12.30;;;2.80;;
67433;SDS011;54305;47.950;6.572;2024-03-23T09:54:28;11.15;;;3.22;;
67433;SDS011;54305;47.950;6.572;2024-03-23T09:56:53;9.65;;;3.30;;
67433;SDS011;54305;47.950;6.572;2024-03-23T09:59:18;10.52;;;3.45;;
67433;SDS011;54305;47.950;6.572;2024-03-23T10:01:44;10.15;;;2.80;;
67433;SDS011;54305;47.950;6.572;2024-03-23T10:04:09;9.18;;;3.17;;
67433;SDS011;54305;47.950;6.572;2024-03-23T10:06:35;10.65;;;3.05;;
67433;SDS011;54305;47.950;6.572;2024-03-23T10:09:01;16.90;;;3.72;;
67433;SDS011;54305;47.950;6.572;2024-03-23T10:11:27;10.32;;;3.25;;
67433;SDS011;54305;47.950;6.572;2024-03-23T10:13:54;12.60;;;4.00;;
67433;SDS011;54305;47.950;6.572;2024-03-23T10:16:22;10.98;;;3.72;;
67433;SDS011;54305;47.950;6.572;2024-03-23T10:18:49;14.85;;;3.35;;
67433;SDS011;54305;47.950;6.572;2024-03-23T10:21:15;13.68;;;3.85;;
67433;SDS011;54305;47.950;6.572;2024-03-23T10:23:41;15.32;;;3.80;;
67433;SDS011;54305;47.950;6.572;2024-03-23T10:28:55;11.60;;;3.42;;
67433;SDS011;54305;47.950;6.572;2024-03-23T10:31:36;7.68;;;2.22;;
67433;SDS011;54305;47.950;6.572;2024-03-23T10:34:02;9.07;;;2.80;;
67433;SDS011;54305;47.950;6.572;2024-03-23T10:36:28;12.20;;;4.28;;
67433;SDS011;54305;47.950;6.572;2024-03-23T10:38:55;4.18;;;2.10;;
67433;SDS011;54305;47.950;6.572;2024-03-23T10:41:23;22.73;;;2.95;;
67433;SDS011;54305;47.950;6.572;2024-03-23T10:43:52;13.52;;;3.03;;
67433;SDS011;54305;47.950;6.572;2024-03-23T10:46:18;12.93;;;3.97;;
67433;SDS011;54305;47.950;6.572;2024-03-23T10:48:44;12.07;;;3.15;;
67433;SDS011;54305;47.950;6.572;2024-03-23T10:51:09;8.95;;;3.05;;
67433;SDS011;54305;47.950;6.572;2024-03-23T10:53:35;6.65;;;3.17;;
67433;SDS011;54305;47.950;6.572;2024-03-23T10:56:02;11.68;;;3.22;;
67433;SDS011;54305;47.950;6.572;2024-03-23T10:58:31;9.90;;;3.08;;
67433;SDS011;54305;47.950;6.572;2024-03-23T11:01:02;11.07;;;2.65;;
67433;SDS011;54305;47.950;6.572;2024-03-23T11:03:34;13.93;;;2.90;;
67433;SDS011;54305;47.950;6.572;2024-03-23T11:06:04;10.23;;;2.45;;
67433;SDS011;54305;47.950;6.572;2024-03-23T11:08:40;10.80;;;2.90;;
67433;SDS011;54305;47.950;6.572;2024-03-23T11:11:19;9.70;;;2.80;;
67433;SDS011;54305;47.950;6.572;2024-03-23T11:13:49;14.43;;;3.33;;
67433;SDS011;54305;47.950;6.572;2024-03-23T11:16:26;10.40;;;2.92;;
67433;SDS011;54305;47.950;6.572;2024-03-23T11:18:53;10.25;;;2.63;;
67433;SDS011;54305;47.950;6.572;2024-03-23T11:24:19;13.77;;;3.08;;
67433;SDS011;54305;47.950;6.572;2024-03-23T11:26:46;11.45;;;2.50;;
67433;SDS011;54305;47.950;6.572;2024-03-23T11:29:12;14.57;;;2.95;;
67433;SDS011;54305;47.950;6.572;2024-03-23T11:31:39;9.40;;;2.50;;
67433;SDS011;54305;47.950;6.572;2024-03-23T11:34:10;8.88;;;2.20;;
67433;SDS011;54305;47.950;6.572;2024-03-23T11:36:36;8.88;;;2.13;;
67433;SDS011;54305;47.950;6.572;2024-03-23T11:39:11;6.97;;;1.83;;
67433;SDS011;54305;47.950;6.572;2024-03-23T11:41:44;25.17;;;2.70;;
67433;SDS011;54305;47.950;6.572;2024-03-23T11:44:21;9.90;;;2.67;;
67433;SDS011;54305;47.950;6.572;2024-03-23T11:46:48;14.02;;;2.45;;
67433;SDS011;54305;47.950;6.572;2024-03-23T11:49:27;10.68;;;2.47;;
67433;SDS011;54305;47.950;6.572;2024-03-23T11:51:54;13.07;;;2.53;;
67433;SDS011;54305;47.950;6.572;2024-03-23T11:54:25;8.05;;;2.50;;
67433;SDS011;54305;47.950;6.572;2024-03-23T11:57:00;5.07;;;1.77;;
67433;SDS011;54305;47.950;6.572;2024-03-23T11:59:33;7.75;;;2.20;;
67433;SDS011;54305;47.950;6.572;2024-03-23T12:01:59;4.38;;;1.58;;
67433;SDS011;54305;47.950;6.572;2024-03-23T12:04:26;2.67;;;1.13;;
67433;SDS011;54305;47.950;6.572;2024-03-23T12:09:39;4.97;;;1.23;;
67433;SDS011;54305;47.950;6.572;2024-03-23T12:12:15;7.40;;;1.20;;
67433;SDS011;54305;47.950;6.572;2024-03-23T12:14:45;10.88;;;1.75;;
67433;SDS011;54305;47.950;6.572;2024-03-23T12:17:26;5.25;;;1.52;;
67433;SDS011;54305;47.950;6.572;2024-03-23T12:19:52;7.28;;;1.23;;
67433;SDS011;54305;47.950;6.572;2024-03-23T12:22:21;3.33;;;1.00;;
67433;SDS011;54305;47.950;6.572;2024-03-23T12:24:47;1.65;;;0.60;;
67433;SDS011;54305;47.950;6.572;2024-03-23T12:27:12;6.10;;;0.82;;
67433;SDS011;54305;47.950;6.572;2024-03-23T12:29:38;6.10;;;1.38;;
67433;SDS011;54305;47.950;6.572;2024-03-23T12:32:04;7.85;;;2.08;;
67433;SDS011;54305;47.950;6.572;2024-03-23T12:34:30;3.10;;;1.00;;
67433;SDS011;54305;47.950;6.572;2024-03-23T12:36:56;3.63;;;1.20;;
67433;SDS011;54305;47.950;6.572;2024-03-23T12:39:21;5.68;;;0.80;;
67433;SDS011;54305;47.950;6.572;2024-03-23T12:41:47;5.68;;;1.10;;
67433;SDS011;54305;47.950;6.572;2024-03-23T12:44:14;6.95;;;1.27;;
67433;SDS011;54305;47.950;6.572;2024-03-23T12:46:40;3.88;;;0.98;;
67433;SDS011;54305;47.950;6.572;2024-03-23T12:49:06;3.42;;;0.85;;
67433;SDS011;54305;47.950;6.572;2024-03-23T12:51:32;4.55;;;0.68;;
67433;SDS011;54305;47.950;6.572;2024-03-23T12:53:57;3.35;;;0.50;;
67433;SDS011;54305;47.950;6.572;2024-03-23T12:56:23;4.57;;;1.17;;
67433;SDS011;54305;47.950;6.572;2024-03-23T12:58:48;4.00;;;0.90;;
67433;SDS011;54305;47.950;6.572;2024-03-23T13:01:16;4.72;;;1.40;;
67433;SDS011;54305;47.950;6.572;2024-03-23T13:03:47;3.08;;;0.70;;
67433;SDS011;54305;47.950;6.572;2024-03-23T13:06:13;5.47;;;1.02;;
67433;SDS011;54305;47.950;6.572;2024-03-23T13:08:39;3.80;;;0.70;;
67433;SDS011;54305;47.950;6.572;2024-03-23T13:11:08;3.58;;;0.82;;
67433;SDS011;54305;47.950;6.572;2024-03-23T13:13:35;2.67;;;0.50;;
67433;SDS011;54305;47.950;6.572;2024-03-23T13:16:03;2.70;;;0.52;;
67433;SDS011;54305;47.950;6.572;2024-03-23T13:18:30;1.13;;;0.65;;
67433;SDS011;54305;47.950;6.572;2024-03-23T13:20:57;3.33;;;0.80;;
67433;SDS011;54305;47.950;6.572;2024-03-23T13:23:22;3.28;;;1.00;;
67433;SDS011;54305;47.950;6.572;2024-03-23T13:25:51;5.03;;;1.98;;
67433;SDS011;54305;47.950;6.572;2024-03-23T13:28:20;2.10;;;0.75;;
67433;SDS011;54305;47.950;6.572;2024-03-23T13:30:53;4.28;;;0.70;;
67433;SDS011;54305;47.950;6.572;2024-03-23T13:33:19;2.17;;;0.65;;
67433;SDS011;54305;47.950;6.572;2024-03-23T13:35:48;0.73;;;0.38;;
67433;SDS011;54305;47.950;6.572;2024-03-23T13:38:17;3.65;;;0.65;;
67433;SDS011;54305;47.950;6.572;2024-03-23T13:40:52;2.78;;;0.47;;
67433;SDS011;54305;47.950;6.572;2024-03-23T13:43:18;10.75;;;1.50;;
67433;SDS011;54305;47.950;6.572;2024-03-23T13:45:44;3.33;;;0.70;;
67433;SDS011;54305;47.950;6.572;2024-03-23T13:48:09;3.60;;;0.60;;
67433;SDS011;54305;47.950;6.572;2024-03-23T13:50:35;3.85;;;0.73;;
67433;SDS011;54305;47.950;6.572;2024-03-23T13:53:00;3.63;;;0.60;;
67433;SDS011;54305;47.950;6.572;2024-03-23T13:55:26;6.50;;;1.00;;
67433;SDS011;54305;47.950;6.572;2024-03-23T13:57:51;1.65;;;0.60;;
67433;SDS011;54305;47.950;6.572;2024-03-23T14:00:16;4.68;;;0.68;;
67433;SDS011;54305;47.950;6.572;2024-03-23T14:02:43;3.67;;;0.95;;
67433;SDS011;54305;47.950;6.572;2024-03-23T14:05:09;5.95;;;1.13;;
67433;SDS011;54305;47.950;6.572;2024-03-23T14:07:34;3.00;;;0.75;;
67433;SDS011;54305;47.950;6.572;2024-03-23T14:10:02;2.10;;;0.77;;
67433;SDS011;54305;47.950;6.572;2024-03-23T14:12:28;4.28;;;1.45;;
67433;SDS011;54305;47.950;6.572;2024-03-23T14:14:53;3.28;;;0.70;;
67433;SDS011;54305;47.950;6.572;2024-03-23T14:17:20;2.22;;;0.60;;
67433;SDS011;54305;47.950;6.572;2024-03-23T14:19:45;3.17;;;0.80;;
67433;SDS011;54305;47.950;6.572;2024-03-23T14:22:11;3.58;;;0.80;;
67433;SDS011;54305;47.950;6.572;2024-03-23T14:24:36;3.42;;;1.02;;
67433;SDS011;54305;47.950;6.572;2024-03-23T14:27:01;3.17;;;0.70;;
67433;SDS011;54305;47.950;6.572;2024-03-23T14:29:30;8.95;;;0.70;;
67433;SDS011;54305;47.950;6.572;2024-03-23T14:31:55;4.10;;;0.73;;
67433;SDS011;54305;47.950;6.572;2024-03-23T14:34:20;4.32;;;0.88;;
67433;SDS011;54305;47.950;6.572;2024-03-23T14:36:46;2.53;;;0.70;;
67433;SDS011;54305;47.950;6.572;2024-03-23T14:39:11;1.50;;;0.40;;
67433;SDS011;54305;47.950;6.572;2024-03-23T14:41:37;5.45;;;1.33;;
67433;SDS011;54305;47.950;6.572;2024-03-23T14:44:03;4.70;;;0.60;;
67433;SDS011;54305;47.950;6.572;2024-03-23T14:46:28;3.75;;;0.73;;
67433;SDS011;54305;47.950;6.572;2024-03-23T14:48:54;3.40;;;0.55;;
67433;SDS011;54305;47.950;6.572;2024-03-23T14:51:20;5.40;;;0.60;;
67433;SDS011;54305;47.950;6.572;2024-03-23T14:53:47;1.20;;;0.47;;
67433;SDS011;54305;47.950;6.572;2024-03-23T14:56:13;2.35;;;0.63;;
67433;SDS011;54305;47.950;6.572;2024-03-23T14:58:40;1.95;;;0.70;;
67433;SDS011;54305;47.950;6.572;2024-03-23T15:01:07;4.00;;;1.10;;
67433;SDS011;54305;47.950;6.572;2024-03-23T15:03:36;3.05;;;1.02;;
67433;SDS011;54305;47.950;6.572;2024-03-23T15:06:04;4.00;;;0.70;;
67433;SDS011;54305;47.950;6.572;2024-03-23T15:08:29;16.83;;;3.75;;
67433;SDS011;54305;47.950;6.572;2024-03-23T15:10:58;7.28;;;1.75;;
67433;SDS011;54305;47.950;6.572;2024-03-23T15:13:24;4.80;;;1.50;;
67433;SDS011;54305;47.950;6.572;2024-03-23T15:15:49;6.55;;;1.52;;
67433;SDS011;54305;47.950;6.572;2024-03-23T15:18:17;1.17;;;0.60;;
67433;SDS011;54305;47.950;6.572;2024-03-23T15:20:53;2.72;;;1.15;;
67433;SDS011;54305;47.950;6.572;2024-03-23T15:23:20;0.85;;;0.28;;
67433;SDS011;54305;47.950;6.572;2024-03-23T15:25:46;4.72;;;1.42;;
67433;SDS011;54305;47.950;6.572;2024-03-23T15:28:11;2.20;;;0.50;;
67433;SDS011;54305;47.950;6.572;2024-03-23T15:30:36;4.63;;;0.50;;
67433;SDS011;54305;47.950;6.572;2024-03-23T15:33:01;5.00;;;0.52;;
67433;SDS011;54305;47.950;6.572;2024-03-23T15:35:27;1.15;;;0.43;;
67433;SDS011;54305;47.950;6.572;2024-03-23T15:37:52;1.48;;;0.60;;